createdAt,value
2022-11-24T00:01:45.230Z,5.86
2022-11-24T00:04:13.482Z,5.90
2022-11-24T00:06:41.370Z,5.89
2022-11-24T00:09:09.487Z,5.80
2022-11-24T00:11:37.939Z,5.78
2022-11-24T00:14:07.255Z,5.62
2022-11-24T00:16:37.964Z,5.74
2022-11-24T00:19:09.104Z,5.67
2022-11-24T00:21:39.691Z,5.63
2022-11-24T00:24:08.078Z,5.54
2022-11-24T00:26:38.225Z,5.51
2022-11-24T00:29:08.480Z,5.56
2022-11-24T00:31:39.091Z,5.49
2022-11-24T00:34:10.775Z,5.45
2022-11-24T00:36:39.381Z,5.34
2022-11-24T00:39:09.022Z,5.25
2022-11-24T00:41:39.341Z,5.31
2022-11-24T00:44:07.890Z,5.39
2022-11-24T00:46:39.823Z,5.53
2022-11-24T00:49:08.269Z,5.49
2022-11-24T00:51:36.224Z,5.44
2022-11-24T00:54:06.648Z,5.42
2022-11-24T00:56:34.773Z,5.35
2022-11-24T00:59:02.939Z,5.35
2022-11-24T01:01:32.009Z,5.37
2022-11-24T01:04:02.626Z,5.30
2022-11-24T01:06:32.366Z,5.24
2022-11-24T01:09:00.548Z,5.25
2022-11-24T01:11:51.436Z,5.23
2022-11-24T01:14:21.037Z,5.16
2022-11-24T01:16:51.592Z,5.12
2022-11-24T01:19:21.186Z,5.13
2022-11-24T01:21:49.143Z,5.23
2022-11-24T01:24:17.965Z,5.19
2022-11-24T01:26:45.962Z,5.24
2022-11-24T01:29:14.022Z,5.50
2022-11-24T01:31:46.682Z,5.57
2022-11-24T01:34:14.831Z,5.68
2022-11-24T01:36:44.496Z,5.74
2022-11-24T01:40:42.857Z,5.78
2022-11-24T01:43:18.103Z,5.81
2022-11-24T01:45:46.769Z,5.84
2022-11-24T01:48:25.889Z,5.90
2022-11-24T01:51:04.481Z,5.93
2022-11-24T01:53:36.463Z,5.98
2022-11-24T01:56:07.838Z,6.02
2022-11-24T01:58:37.717Z,6.15
2022-11-24T02:01:09.172Z,6.20
2022-11-24T02:03:45.116Z,6.32
2022-11-24T02:06:15.109Z,6.33
2022-11-24T02:08:48.494Z,6.33
2022-11-24T02:11:18.033Z,6.27
2022-11-24T02:13:48.623Z,6.22
2022-11-24T02:16:16.633Z,6.22
2022-11-24T02:18:45.559Z,6.14
2022-11-24T02:21:15.771Z,6.12
2022-11-24T02:23:49.640Z,6.14
2022-11-24T02:26:29.279Z,6.04
2022-11-24T02:28:58.269Z,6.04
2022-11-24T02:31:28.942Z,5.98
2022-11-24T02:33:59.543Z,5.93
2022-11-24T02:36:27.636Z,5.88
2022-11-24T02:38:55.941Z,5.84
2022-11-24T02:41:29.061Z,5.85
2022-11-24T02:44:01.359Z,5.84
2022-11-24T02:46:29.641Z,5.87
2022-11-24T02:48:58.436Z,5.89
2022-11-24T02:51:26.433Z,5.90
2022-11-24T02:53:54.603Z,5.97
2022-11-24T02:56:22.506Z,6.00
2022-11-24T02:58:52.110Z,6.03
2022-11-24T03:01:20.681Z,6.03
2022-11-24T03:03:48.642Z,6.12
2022-11-24T03:06:17.142Z,6.17
2022-11-24T03:08:47.378Z,6.22
2022-11-24T03:11:15.580Z,6.29
2022-11-24T03:13:43.648Z,6.31
2022-11-24T03:16:13.472Z,6.32
2022-11-24T03:18:41.819Z,6.36
2022-11-24T03:21:12.351Z,6.41
2022-11-24T03:23:40.324Z,6.47
2022-11-24T03:26:12.301Z,6.47
2022-11-24T03:28:40.218Z,6.52
2022-11-24T03:31:09.488Z,6.57
2022-11-24T03:33:39.123Z,6.55
2022-11-24T03:36:10.572Z,6.61
2022-11-24T03:38:40.819Z,6.66
2022-11-24T03:41:11.958Z,6.67
2022-11-24T03:43:43.774Z,6.71
2022-11-24T03:46:13.011Z,6.72
2022-11-24T03:48:42.466Z,6.74
2022-11-24T03:51:11.612Z,6.74
2022-11-24T03:53:42.051Z,6.73
2022-11-24T03:56:10.290Z,6.72
2022-11-24T03:58:40.803Z,6.71
2022-11-24T04:01:09.244Z,6.69
2022-11-24T04:03:39.866Z,6.67
2022-11-24T04:06:09.410Z,6.69
2022-11-24T04:08:39.724Z,6.69
2022-11-24T04:11:08.245Z,6.70
2022-11-24T04:13:37.449Z,6.67
2022-11-24T04:16:07.048Z,6.65
2022-11-24T04:18:35.049Z,6.66
2022-11-24T04:21:03.168Z,6.68
2022-11-24T04:23:32.379Z,6.69
2022-11-24T04:26:00.872Z,6.74
2022-11-24T04:28:28.757Z,6.75
2022-11-24T04:30:56.961Z,6.81
2022-11-24T04:33:25.065Z,6.82
2022-11-24T04:35:54.871Z,6.79
2022-11-24T04:39:24.932Z,6.76
2022-11-24T04:41:14.610Z,6.73
2022-11-24T04:43:42.562Z,6.67
2022-11-24T04:46:13.426Z,6.66
2022-11-24T04:48:43.808Z,6.65
2022-11-24T04:51:14.731Z,6.65
2022-11-24T04:53:45.064Z,6.64
2022-11-24T04:56:14.730Z,6.62
2022-11-24T04:58:42.904Z,6.61
2022-11-24T05:01:11.474Z,6.63
2022-11-24T05:03:40.145Z,6.62
2022-11-24T05:06:08.902Z,6.64
2022-11-24T05:08:36.915Z,6.65
2022-11-24T05:11:06.237Z,6.67
2022-11-24T05:13:35.736Z,6.62
2022-11-24T05:16:04.127Z,6.70
2022-11-24T05:18:32.686Z,6.69
2022-11-24T05:21:01.258Z,6.73
2022-11-24T05:23:29.219Z,6.73
2022-11-24T05:26:01.192Z,6.75
2022-11-24T05:28:29.520Z,6.72
2022-11-24T05:31:02.255Z,6.68
2022-11-24T05:33:34.932Z,6.65
2022-11-24T05:36:04.622Z,6.61
2022-11-24T05:38:35.138Z,6.51
2022-11-24T05:41:04.124Z,6.59
2022-11-24T05:43:33.002Z,6.58
2022-11-24T05:46:03.218Z,6.60
2022-11-24T05:48:31.170Z,6.62
2022-11-24T05:51:06.427Z,6.63
2022-11-24T05:53:37.274Z,6.67
2022-11-24T05:56:06.070Z,6.68
2022-11-24T05:58:36.479Z,6.68
2022-11-24T06:01:08.924Z,6.67
2022-11-24T06:03:39.061Z,6.66
2022-11-24T06:06:09.262Z,6.65
2022-11-24T06:08:37.293Z,6.59
2022-11-24T06:11:18.665Z,6.64
2022-11-24T06:13:48.490Z,6.62
2022-11-24T06:16:18.152Z,6.69
2022-11-24T06:18:46.295Z,6.69
2022-11-24T06:21:14.573Z,6.71
2022-11-24T06:23:42.717Z,6.70
2022-11-24T06:26:11.028Z,6.74
2022-11-24T06:28:39.218Z,6.76
2022-11-24T06:31:11.625Z,6.69
2022-11-24T06:33:45.696Z,6.70
2022-11-24T06:36:15.482Z,6.70
2022-11-24T06:41:42.868Z,6.94
2022-11-24T06:44:10.999Z,7.09
2022-11-24T06:46:39.498Z,7.13
2022-11-24T06:49:07.606Z,7.25
2022-11-24T06:51:36.152Z,7.20
2022-11-24T06:54:07.800Z,7.17
2022-11-24T06:56:36.842Z,7.17
2022-11-24T06:59:06.414Z,7.00
2022-11-24T07:01:34.699Z,7.13
2022-11-24T07:04:05.560Z,7.13
2022-11-24T07:06:33.816Z,7.15
2022-11-24T07:09:04.755Z,7.10
2022-11-24T07:11:33.119Z,7.09
2022-11-24T07:14:01.119Z,7.05
2022-11-24T07:16:30.946Z,7.05
2022-11-24T07:18:59.439Z,7.04
2022-11-24T07:21:28.971Z,7.00
2022-11-24T07:23:58.428Z,6.93
2022-11-24T07:26:34.398Z,6.88
2022-11-24T07:29:06.142Z,6.79
2022-11-24T07:31:35.618Z,6.72
2022-11-24T07:34:04.021Z,6.66
2022-11-24T07:36:32.900Z,6.64
2022-11-24T07:39:01.146Z,6.62
2022-11-24T07:41:29.319Z,6.62
2022-11-24T07:43:57.334Z,6.61
2022-11-24T07:46:28.198Z,6.64
2022-11-24T07:48:57.620Z,6.63
2022-11-24T07:51:26.025Z,6.64
2022-11-24T07:53:54.176Z,6.63
2022-11-24T07:56:22.223Z,6.62
2022-11-24T07:58:53.249Z,6.58
2022-11-24T08:01:21.783Z,6.54
2022-11-24T08:03:50.098Z,6.52
2022-11-24T08:06:26.069Z,6.54
2022-11-24T08:09:00.002Z,6.60
2022-11-24T08:11:31.341Z,6.74
2022-11-24T08:13:59.885Z,6.84
2022-11-24T08:16:28.000Z,7.10
2022-11-24T08:18:57.047Z,7.23
2022-11-24T08:21:28.953Z,7.63
2022-11-24T08:23:59.667Z,8.18
2022-11-24T08:26:30.717Z,8.99
2022-11-24T08:29:01.368Z,9.80
2022-11-24T08:31:33.672Z,9.62
2022-11-24T08:34:03.032Z,9.53
2022-11-24T08:36:33.846Z,9.28
2022-11-24T08:39:02.804Z,9.43
2022-11-24T08:41:31.541Z,9.41
2022-11-24T08:43:59.493Z,9.27
2022-11-24T08:46:30.021Z,9.60
2022-11-24T08:48:58.167Z,10.68
2022-11-24T08:51:28.279Z,11.72
2022-11-24T08:53:59.178Z,12.11
2022-11-24T08:56:28.563Z,12.17
2022-11-24T08:58:59.460Z,12.73
2022-11-24T09:01:29.199Z,12.24
2022-11-24T09:03:57.887Z,11.36
2022-11-24T09:06:30.891Z,10.92
2022-11-24T09:09:01.075Z,10.23
2022-11-24T09:11:29.466Z,10.10
2022-11-24T09:13:57.797Z,10.01
2022-11-24T09:16:28.970Z,9.90
2022-11-24T09:18:58.165Z,9.64
2022-11-24T09:21:26.190Z,9.38
2022-11-24T09:23:55.536Z,9.49
2022-11-24T09:26:27.152Z,9.59
2022-11-24T09:28:56.704Z,9.29
2022-11-24T09:31:27.010Z,9.16
2022-11-24T09:33:56.006Z,8.96
2022-11-24T09:39:09.153Z,8.48
2022-11-24T09:41:49.396Z,8.54
2022-11-24T09:44:41.956Z,8.69
2022-11-24T09:47:18.416Z,8.76
2022-11-24T09:49:52.252Z,8.72
2022-11-24T09:52:36.662Z,8.88
2022-11-24T09:55:14.118Z,10.16
2022-11-24T09:57:45.247Z,11.61
2022-11-24T10:00:14.869Z,12.56
2022-11-24T10:02:50.991Z,13.33
2022-11-24T10:05:20.195Z,13.81
2022-11-24T10:08:01.891Z,12.72
2022-11-24T10:10:39.384Z,13.21
2022-11-24T10:13:26.169Z,13.03
2022-11-24T10:16:05.404Z,13.10
2022-11-24T10:18:45.049Z,13.41
2022-11-24T10:21:33.472Z,13.49
2022-11-24T10:24:22.244Z,14.11
2022-11-24T10:26:53.791Z,13.98
2022-11-24T10:29:29.695Z,13.46
2022-11-24T10:31:58.927Z,12.91
2022-11-24T10:34:33.792Z,13.78
2022-11-24T10:37:10.113Z,13.24
2022-11-24T10:39:42.286Z,13.42
2022-11-24T10:42:16.782Z,13.55
2022-11-24T10:44:46.701Z,14.36
2022-11-24T10:47:22.737Z,14.52
2022-11-24T10:49:57.215Z,14.47
2022-11-24T10:52:26.349Z,13.50
2022-11-24T10:54:57.074Z,13.19
2022-11-24T10:57:30.473Z,12.77
2022-11-24T11:00:00.801Z,12.58
2022-11-24T11:02:34.945Z,12.05
2022-11-24T11:05:26.875Z,12.70
2022-11-24T11:08:16.130Z,12.36
2022-11-24T11:10:46.353Z,12.75
2022-11-24T11:13:29.168Z,12.60
2022-11-24T11:16:00.287Z,12.22
2022-11-24T11:18:32.849Z,11.48
2022-11-24T11:21:03.763Z,11.47
2022-11-24T11:23:35.470Z,11.82
2022-11-24T11:26:21.283Z,12.16
2022-11-24T11:34:56.263Z,13.47
2022-11-24T11:37:29.109Z,12.91
2022-11-24T11:43:02.549Z,11.69
2022-11-24T11:45:36.283Z,12.76
2022-11-24T11:48:23.178Z,13.79
2022-11-24T11:53:51.745Z,14.69
2022-11-24T11:56:26.831Z,14.94
2022-11-24T11:59:15.102Z,15.28
2022-11-24T12:02:06.181Z,14.80
2022-11-24T12:04:46.234Z,15.61
2022-11-24T12:07:40.110Z,15.23
2022-11-24T12:10:18.318Z,14.74
2022-11-24T12:13:20.066Z,13.32
2022-11-24T12:15:53.030Z,12.54
2022-11-24T12:21:27.026Z,11.89
2022-11-24T12:24:05.744Z,11.76
2022-11-24T12:26:43.935Z,11.49
2022-11-24T12:29:34.216Z,11.30
2022-11-24T12:32:12.235Z,11.15
2022-11-24T12:34:50.286Z,11.07
2022-11-24T12:37:35.678Z,10.94
2022-11-24T12:40:06.623Z,10.78
2022-11-24T12:42:51.588Z,10.93
2022-11-24T12:45:29.948Z,10.73
2022-11-24T12:48:18.531Z,10.67
2022-11-24T12:50:48.010Z,10.60
2022-11-24T12:53:20.495Z,10.47
2022-11-24T12:55:50.430Z,10.57
2022-11-24T12:58:26.481Z,10.57
2022-11-24T13:01:11.660Z,10.62
2022-11-24T13:04:07.951Z,10.79
2022-11-24T13:06:49.569Z,10.87
2022-11-24T13:09:18.261Z,10.60
2022-11-24T13:11:47.494Z,10.46
2022-11-24T13:14:19.224Z,10.22
2022-11-24T13:19:45.879Z,10.24
2022-11-24T13:22:24.324Z,10.27
2022-11-24T13:25:14.412Z,10.35
2022-11-24T13:27:48.272Z,10.53
2022-11-24T13:31:01.305Z,10.46
2022-11-24T13:33:36.924Z,10.17
2022-11-24T13:36:53.757Z,9.98
2022-11-24T13:39:26.503Z,9.99
2022-11-24T13:42:03.560Z,9.84
2022-11-24T13:44:51.141Z,9.85
2022-11-24T13:47:49.566Z,9.70
2022-11-24T13:51:11.596Z,9.53
2022-11-24T13:53:45.203Z,9.38
2022-11-24T13:56:26.414Z,9.35
2022-11-24T13:58:58.846Z,9.35
2022-11-24T14:01:28.504Z,9.39
2022-11-24T14:07:02.447Z,9.40
2022-11-24T14:09:38.217Z,9.39
2022-11-24T14:12:16.212Z,9.39
2022-11-24T14:14:46.218Z,9.33
2022-11-24T14:17:23.653Z,9.28
2022-11-24T14:19:53.569Z,9.22
2022-11-24T14:22:24.342Z,9.22
2022-11-24T14:24:54.737Z,9.13
2022-11-24T14:27:31.786Z,9.10
2022-11-24T14:30:03.444Z,9.04
2022-11-24T14:32:32.483Z,9.06
2022-11-24T14:35:00.663Z,9.02
2022-11-24T14:37:28.754Z,8.93
2022-11-24T14:39:57.423Z,8.87
2022-11-24T14:42:28.275Z,8.84
2022-11-24T14:44:59.717Z,8.80
2022-11-24T14:47:31.976Z,8.74
2022-11-24T14:50:12.889Z,8.66
2022-11-24T14:52:46.590Z,8.52
2022-11-24T14:55:26.861Z,8.47
2022-11-24T14:57:55.161Z,8.39
2022-11-24T15:00:30.249Z,8.30
2022-11-24T15:03:15.930Z,8.27
2022-11-24T15:05:55.862Z,8.22
2022-11-24T15:08:25.749Z,8.14
2022-11-24T15:10:59.812Z,8.06
2022-11-24T15:13:28.873Z,7.97
2022-11-24T15:16:03.245Z,7.84
2022-11-24T15:18:40.540Z,7.75
2022-11-24T15:21:11.810Z,7.64
2022-11-24T15:23:45.719Z,7.51
2022-11-24T15:26:35.524Z,7.42
2022-11-24T15:29:06.451Z,7.25
2022-11-24T15:31:36.254Z,7.06
2022-11-24T15:34:04.434Z,6.97
2022-11-24T15:36:33.244Z,6.84
2022-11-24T15:39:01.653Z,6.67
2022-11-24T15:41:32.010Z,6.54
2022-11-24T15:44:01.260Z,6.45
2022-11-24T15:46:37.814Z,6.31
2022-11-24T15:49:08.274Z,6.19
2022-11-24T15:51:37.109Z,6.11
2022-11-24T15:54:10.680Z,6.06
2022-11-24T15:56:41.719Z,5.98
2022-11-24T15:59:18.780Z,5.85
2022-11-24T16:01:49.838Z,5.74
2022-11-24T16:04:19.750Z,5.67
2022-11-24T16:06:50.026Z,5.54
2022-11-24T16:09:18.235Z,5.47
2022-11-24T16:11:46.441Z,5.42
2022-11-24T16:14:14.723Z,5.34
2022-11-24T16:16:43.216Z,5.29
2022-11-24T16:19:12.434Z,5.24
2022-11-24T16:21:44.042Z,5.16
2022-11-24T16:24:12.406Z,5.19
2022-11-24T16:26:40.451Z,5.09
2022-11-24T16:29:08.890Z,5.02
2022-11-24T16:31:38.023Z,4.98
2022-11-24T16:34:06.060Z,4.92
2022-11-24T16:36:34.566Z,4.96
2022-11-24T16:39:04.647Z,4.96
2022-11-24T16:43:43.564Z,4.78
2022-11-24T16:46:20.379Z,4.79
2022-11-24T16:48:50.301Z,4.68
2022-11-24T16:51:20.325Z,4.60
2022-11-24T16:53:48.842Z,4.53
2022-11-24T16:56:17.549Z,4.51
2022-11-24T16:58:49.292Z,4.48
2022-11-24T17:01:17.327Z,4.46
2022-11-24T17:03:45.567Z,4.42
2022-11-24T17:06:16.882Z,4.35
2022-11-24T17:08:46.671Z,4.49
2022-11-24T17:11:19.374Z,4.40
2022-11-24T17:13:50.104Z,4.29
2022-11-24T17:16:20.249Z,4.38
2022-11-24T17:18:49.017Z,4.44
2022-11-24T17:21:19.364Z,4.52
2022-11-24T17:23:47.746Z,4.49
2022-11-24T17:26:18.601Z,4.44
2022-11-24T17:28:47.183Z,4.16
2022-11-24T17:31:21.303Z,4.36
2022-11-24T17:33:53.088Z,4.27
2022-11-24T17:36:21.243Z,4.31
2022-11-24T17:38:50.409Z,4.23
2022-11-24T17:41:18.725Z,4.10
2022-11-24T17:43:49.459Z,4.03
2022-11-24T17:46:19.214Z,4.06
2022-11-24T17:48:47.686Z,3.94
2022-11-24T17:51:17.990Z,3.92
2022-11-24T17:53:47.618Z,3.78
2022-11-24T17:56:18.012Z,3.78
2022-11-24T17:58:46.455Z,3.67
2022-11-24T18:01:18.151Z,3.60
2022-11-24T18:03:50.484Z,3.54
2022-11-24T18:06:25.138Z,3.59
2022-11-24T18:08:54.760Z,3.71
2022-11-24T18:11:30.893Z,3.59
2022-11-24T18:14:02.645Z,3.49
2022-11-24T18:16:34.378Z,3.49
2022-11-24T18:19:09.814Z,3.50
2022-11-24T18:21:38.958Z,3.42
2022-11-24T18:24:08.292Z,3.38
2022-11-24T18:26:36.318Z,3.36
2022-11-24T18:29:04.648Z,3.36
2022-11-24T18:31:36.837Z,3.31
2022-11-24T18:34:06.731Z,3.29
2022-11-24T18:36:35.408Z,3.28
2022-11-24T18:39:07.827Z,3.25
2022-11-24T18:41:38.208Z,3.23
2022-11-24T18:44:08.537Z,3.23
2022-11-24T18:46:39.032Z,3.21
2022-11-24T18:49:08.052Z,3.10
2022-11-24T18:51:36.348Z,3.32
2022-11-24T18:54:05.397Z,3.31
2022-11-24T18:56:33.660Z,3.31
2022-11-24T18:59:01.915Z,3.28
2022-11-24T19:01:30.644Z,3.34
2022-11-24T19:04:02.986Z,3.38
2022-11-24T19:06:33.069Z,3.32
2022-11-24T19:09:02.811Z,3.26
2022-11-24T19:11:36.049Z,3.32
2022-11-24T19:14:06.693Z,3.31
2022-11-24T19:16:38.658Z,3.20
2022-11-24T19:19:12.986Z,3.15
2022-11-24T19:21:41.751Z,3.13
2022-11-24T19:24:11.224Z,3.03
2022-11-24T19:26:39.624Z,3.02
2022-11-24T19:29:10.745Z,3.07
2022-11-24T19:31:40.088Z,3.01
2022-11-24T19:34:08.368Z,3.01
2022-11-24T19:36:38.364Z,3.05
2022-11-24T19:39:06.744Z,3.01
2022-11-24T19:41:35.266Z,3.00
2022-11-24T19:44:08.347Z,2.89
2022-11-24T19:46:36.530Z,2.87
2022-11-24T19:49:09.115Z,2.90
2022-11-24T19:51:41.227Z,2.82
2022-11-24T19:54:13.801Z,2.80
2022-11-24T19:56:42.095Z,2.74
2022-11-24T19:59:10.904Z,2.78
2022-11-24T20:01:43.897Z,2.81
2022-11-24T20:04:16.419Z,2.78
2022-11-24T20:06:48.948Z,2.80
2022-11-24T20:09:18.516Z,2.73
2022-11-24T20:11:46.695Z,2.67
2022-11-24T20:14:17.586Z,2.58
2022-11-24T20:16:47.747Z,2.65
2022-11-24T20:19:18.269Z,2.74
2022-11-24T20:21:50.047Z,2.72
2022-11-24T20:24:20.044Z,2.64
2022-11-24T20:26:50.375Z,2.51
2022-11-24T20:29:18.860Z,2.44
2022-11-24T20:31:51.532Z,2.38
2022-11-24T20:34:20.224Z,2.48
2022-11-24T20:36:50.321Z,2.48
2022-11-24T20:39:21.489Z,2.30
2022-11-24T20:41:50.037Z,2.36
2022-11-24T20:44:21.419Z,2.32
2022-11-24T20:46:50.236Z,2.29
2022-11-24T20:49:21.551Z,2.28
2022-11-24T20:51:54.527Z,2.40
2022-11-24T20:54:23.297Z,2.27
2022-11-24T20:56:51.678Z,2.19
2022-11-24T20:59:21.766Z,2.15
2022-11-24T21:01:51.515Z,2.20
2022-11-24T21:04:22.514Z,2.16
2022-11-24T21:06:52.275Z,2.10
2022-11-24T21:09:20.373Z,2.02
2022-11-24T21:11:48.550Z,1.94
2022-11-24T21:14:16.803Z,1.95
2022-11-24T21:16:47.707Z,1.90
2022-11-24T21:19:18.726Z,1.90
2022-11-24T21:21:47.721Z,1.86
2022-11-24T21:24:21.702Z,1.89
2022-11-24T21:26:51.784Z,1.87
2022-11-24T21:29:22.506Z,1.88
2022-11-24T21:31:53.276Z,1.98
2022-11-24T21:34:21.650Z,1.89
2022-11-24T21:36:50.431Z,1.84
2022-11-24T21:39:20.097Z,1.75
2022-11-24T21:44:43.214Z,1.78
2022-11-24T21:47:11.269Z,1.70
2022-11-24T21:49:39.301Z,1.62
2022-11-24T21:52:07.514Z,1.59
2022-11-24T21:54:35.979Z,1.58
2022-11-24T21:57:05.143Z,1.56
2022-11-24T21:59:33.260Z,1.53
2022-11-24T22:02:02.779Z,1.57
2022-11-24T22:04:30.969Z,1.57
2022-11-24T22:06:59.125Z,1.55
2022-11-24T22:09:27.120Z,1.49
2022-11-24T22:11:55.640Z,1.47
2022-11-24T22:14:26.325Z,1.38
2022-11-24T22:16:54.272Z,1.37
2022-11-24T22:19:23.846Z,1.36
2022-11-24T22:21:51.927Z,1.34
2022-11-24T22:24:23.031Z,1.33
2022-11-24T22:26:55.087Z,1.27
2022-11-24T22:29:23.100Z,1.25
2022-11-24T22:31:54.350Z,1.27
2022-11-24T22:34:23.774Z,1.35
2022-11-24T22:36:51.944Z,1.33
2022-11-24T22:39:22.293Z,1.31
2022-11-24T22:41:50.234Z,1.22
2022-11-24T22:44:18.280Z,1.26
2022-11-24T22:46:46.284Z,1.20
2022-11-24T22:49:16.681Z,1.17
2022-11-24T22:51:46.252Z,1.16
2022-11-24T22:54:14.589Z,1.22
2022-11-24T22:56:42.628Z,1.34
2022-11-24T22:59:10.726Z,1.28
2022-11-24T23:01:38.827Z,1.22
2022-11-24T23:04:07.003Z,1.18
2022-11-24T23:06:35.281Z,1.31
2022-11-24T23:09:07.231Z,1.25
2022-11-24T23:11:38.496Z,1.25
2022-11-24T23:14:08.204Z,1.22
2022-11-24T23:16:38.736Z,1.29
2022-11-24T23:19:07.334Z,1.24
2022-11-24T23:21:38.450Z,1.36
2022-11-24T23:24:11.487Z,1.39
2022-11-24T23:26:42.763Z,1.44
2022-11-24T23:29:11.852Z,1.40
2022-11-24T23:31:40.751Z,1.48
2022-11-24T23:34:11.500Z,1.40
2022-11-24T23:36:39.576Z,1.35
2022-11-24T23:39:14.322Z,1.39
2022-11-24T23:41:42.568Z,1.39
2022-11-24T23:44:13.066Z,1.36
2022-11-24T23:46:44.146Z,1.38
2022-11-24T23:49:14.412Z,1.35
2022-11-24T23:51:44.971Z,1.27
2022-11-24T23:54:14.723Z,1.22
2022-11-24T23:56:42.944Z,1.20
2022-11-24T23:59:12.312Z,1.15
